Latest Coastal Weather Observations for Flinders Island Airport

IDT60701

Issued at 8:45 am EDT Wednesday 22 October 2014 (issued every 10 minutes, with the page automatically refreshed every 10 minutes)

About coastal observations | Map of coastal stations | Coastal observations for TAS | Marine services | Other Formats
Station Details ID: 099005 Name: FLINDERS ISLAND AIRPORT Lat: -40.09 Lon: 148.00 Height: 9.0 m
Data from the previous 72 hours. | See also: Recent months at Flinders Island Airport
Date/Time
EDT
Temp

°C
Wind Pressure Rain
since 9am
mm
Weather Cloud Vis
km
Sea
Height
m
Swell
Dir
 
Speed
knots
Gust
knots
hPa Trend Height
m
Period
s
Dir
22/08:30am 17.1 NE 18 22 1021.0 - 0.0 - - 10 - - - -
22/08:00am 16.3 NE 18 24 1021.0 - 0.0 - - 10 - - - -
22/07:30am 15.3 NE 16 20 1021.1 - 0.0 - - 10 - - - -
22/07:00am 14.3 NE 12 16 1021.6 - 0.0 - - 10 - - - -
22/06:30am 14.0 ENE 15 21 1021.7 - 0.0 - - 10 - - - -
22/06:00am 14.0 ENE 14 18 1021.8 - 0.0 - - 10 - - - -
22/05:30am 14.2 ENE 14 20 1022.0 - 0.0 - - 10 - - - -
22/05:00am 14.1 ENE 13 19 1022.1 - 0.0 - Partly cloudy 10 - - - -
22/04:30am 14.0 ENE 13 19 1022.5 - 0.0 - - 10 - - - -
22/04:00am 13.9 ENE 18 25 1022.8 - 0.0 - Partly cloudy 10 - - - -
22/03:30am 14.1 ENE 14 20 1023.7 - 0.0 - Partly cloudy 10 - - - -
22/03:00am 14.2 ENE 17 23 1024.2 - 0.0 - Partly cloudy 10 - - - -
22/02:30am 14.4 ENE 16 23 1024.6 - 0.0 - Cloudy 10 - - - -
22/02:00am 14.1 ENE 16 23 1025.1 - 0.0 - Partly cloudy 10 - - - -
22/01:30am 13.9 ENE 18 27 1025.3 - 0.0 - Partly cloudy 10 - - - -
22/01:15am 13.8 ENE 17 27 1025.4 - 0.0 - Partly cloudy 10 - - - -
22/01:00am 13.9 ENE 17 26 1025.7 - 0.0 - Partly cloudy 10 - - - -
22/12:30am 14.1 ENE 16 22 1026.6 - 0.0 - Cloudy 10 - - - -
22/12:03am 14.3 NE 16 26 1027.2 - 0.0 - Cloudy 10 - - - -
22/12:00am 14.3 NE 15 21 1027.2 - 0.0 - Cloudy 10 - - - -
 
Date/Time
EDT
Temp

°C
Wind Pressure Rain
since 9am
mm
Weather Cloud Vis
km
Sea
Height
m
Swell
Dir
 
Speed
knots
Gust
knots
hPa Trend Height
m
Period
s
Dir
21/11:52pm 14.2 NE 15 25 1027.3 - 0.0 - Cloudy 10 - - - -
21/11:30pm 14.4 ENE 16 22 1027.9 - 0.0 - Cloudy 10 - - - -
21/11:00pm 14.4 ENE 15 21 1028.3 - 0.0 - Cloudy 10 - - - -
21/10:40pm 14.2 ENE 16 26 1028.2 - 0.0 - Cloudy 10 - - - -
21/10:30pm 14.3 ENE 15 24 1028.2 - 0.0 - Cloudy 10 - - - -
21/10:00pm 13.6 ENE 13 20 1028.5 - 0.0 - Partly cloudy 10 - - - -
21/09:30pm 13.1 ENE 10 14 1028.3 - 0.0 - - 10 - - - -
21/09:00pm 13.1 ENE 11 16 1028.3 - 0.0 - - 10 - - - -
21/08:30pm 13.4 ENE 10 14 1028.6 - 0.0 - - 10 - - - -
21/08:00pm 13.5 ENE 9 15 1028.7 - 0.0 - Partly cloudy 10 - - - -
21/07:30pm 13.6 ENE 13 17 1028.7 - 0.0 - - 10 - - - -
21/07:00pm 14.1 ENE 16 21 1028.6 - 0.0 - Partly cloudy 10 - - - -
21/06:30pm 14.8 ENE 13 20 1028.9 - 0.0 - Cloudy 10 - - - -
21/06:00pm 15.5 ENE 15 24 1029.0 - 0.0 - Partly cloudy 10 - - - -
21/05:30pm 15.3 ENE 18 24 1028.8 - 0.0 - Partly cloudy 10 - - - -
21/05:20pm 15.6 ENE 15 27 1028.8 - 0.0 - Partly cloudy 10 - - - -
21/05:00pm 16.5 ENE 17 24 1029.0 - 0.0 - Partly cloudy 10 - - - -
21/04:30pm 16.9 ENE 16 23 1029.3 - 0.0 - Partly cloudy 10 - - - -
21/04:00pm 17.1 ENE 15 22 1029.5 - 0.0 - Partly cloudy 10 - - - -
21/03:45pm 16.7 ENE 16 26 1030.0 - 0.0 - Partly cloudy 10 - - - -
21/03:30pm 16.9 ENE 16 25 1030.2 - 0.0 - Partly cloudy 10 - - - -
21/03:00pm 17.1 NE 18 24 1030.3 - 0.0 - Mostly clear 10 - - - -
21/02:30pm 16.4 E 18 24 1030.7 - 0.0 - Partly cloudy 10 - - - -
21/02:14pm 17.5 NE 17 27 1031.0 - 0.0 - Partly cloudy 10 - - - -
21/02:00pm 17.4 ENE 18 24 1030.9 - 0.0 - Partly cloudy 10 - - - -
21/01:48pm 17.5 NE 17 27 1031.2 - 0.0 - Partly cloudy 10 - - - -
21/01:30pm 17.1 NE 16 22 1031.5 - 0.0 - Partly cloudy 10 - - - -
21/01:00pm 16.8 ENE 17 22 1032.0 - 0.0 - Cloudy 10 - - - -
21/12:30pm 16.2 NE 17 24 1032.2 - 0.0 - Cloudy 10 - - - -
21/12:00pm 17.8 NE 17 25 1032.1 - 0.0 - Mostly clear 10 - - - -
21/11:30am 17.5 ENE 15 22 1032.6 - 0.0 - Cloudy 10 - - - -
21/11:00am 16.6 ENE 13 22 1033.0 - 0.0 - Cloudy 10 - - - -
21/10:30am 15.8 ENE 11 18 1033.2 - 0.0 - Cloudy 10 - - - -
21/10:00am 16.3 ENE 15 19 1033.4 - 0.0 - Cloudy 10 - - - -
21/09:30am 15.6 ENE 14 22 1033.2 - 0.0 - Cloudy 10 - - - -
21/09:00am 15.3 ENE 13 17 1033.1 - 0.0 - Cloudy 10 - - - -
21/08:30am 15.3 ENE 11 16 1032.9 - 0.0 - Partly cloudy 10 - - - -
21/08:00am 14.0 ENE 13 17 1032.4 - 0.0 - Partly cloudy 10 - - - -
21/07:30am 13.2 ENE 8 13 1032.6 - 0.0 - Partly cloudy 10 - - - -
21/07:00am 12.3 ENE 9 14 1032.3 - 0.0 - Partly cloudy 10 - - - -
21/06:30am 12.1 E 6 10 1032.3 - 0.0 - Cloudy 10 - - - -
21/06:00am 11.7 ENE 9 16 1032.2 - 0.0 - Mostly cloudy 10 - - - -
21/05:30am 11.7 ENE 9 15 1032.3 - 0.0 - Cloudy 10 - - - -
21/05:00am 11.8 ENE 7 11 1032.3 - 0.0 - Cloudy 10 - - - -
21/04:30am 11.3 ENE 7 10 1032.3 - 0.0 - Cloudy 10 - - - -
21/04:00am 10.2 ENE 8 12 1032.4 - 0.0 - Partly cloudy 10 - - - -
21/03:30am 9.9 E 7 10 1032.6 - 0.0 - Partly cloudy 10 - - - -
21/03:00am 10.0 E 8 10 1032.8 - 0.0 - - 10 - - - -
21/02:30am 10.9 ENE 10 14 1033.3 - 0.0 - Partly cloudy 10 - - - -
21/02:00am 11.6 ENE 8 13 1033.5 - 0.0 - Cloudy 10 - - - -
21/01:30am 11.8 ENE 9 14 1033.6 - 0.0 - Cloudy 10 - - - -
21/01:00am 11.7 ENE 9 13 1034.0 - 0.0 - Cloudy 10 - - - -
21/12:30am 11.0 ENE 7 11 1034.2 - 0.0 - Cloudy 10 - - - -
21/12:00am 11.5 E 7 11 1034.2 - 0.0 - Mostly cloudy 10 - - - -
 
Date/Time
EDT
Temp

°C
Wind Pressure Rain
since 9am
mm
Weather Cloud Vis
km
Sea
Height
m
Swell
Dir
 
Speed
knots
Gust
knots
hPa Trend Height
m
Period
s
Dir
20/11:30pm 11.9 E 6 12 1034.5 - 0.0 - Cloudy 10 - - - -
20/11:00pm 11.1 E 5 9 1034.5 - 0.0 - Cloudy 10 - - - -
20/10:30pm 10.9 E 5 6 1034.6 - 0.0 - Cloudy 10 - - - -
20/10:00pm 8.9 E 5 6 1034.8 - 0.0 - Cloudy 10 - - - -
20/09:30pm 7.7 E 5 6 1034.6 - 0.0 - Partly cloudy 10 - - - -
20/09:00pm 9.5 ESE 5 7 1034.5 - 0.0 - Mostly clear 10 - - - -
20/08:30pm 10.1 E 7 8 1034.2 - 0.0 - Partly cloudy 10 - - - -
20/08:00pm 10.0 E 7 10 1033.8 - 0.0 - - 10 - - - -
20/07:30pm 10.7 E 7 9 1033.5 - 0.0 - - 10 - - - -
20/07:00pm 12.1 E 8 13 1033.4 - 0.0 - - 10 - - - -
20/06:30pm 13.0 E 9 15 1033.2 - 0.0 - Partly cloudy 10 - - - -
20/06:00pm 12.6 E 10 16 1033.1 - 0.0 - Mostly clear 10 - - - -
20/05:30pm 13.1 E 9 14 1032.9 - 0.0 - Cloudy 10 - - - -
20/05:00pm 14.2 E 8 14 1033.0 - 0.0 - Partly cloudy 10 - - - -
20/04:30pm 13.6 ESE 9 16 1032.9 - 0.0 - Cloudy 10 - - - -
20/04:00pm 15.8 E 11 18 1032.9 - 0.0 - Partly cloudy 10 - - - -
20/03:30pm 15.2 ENE 11 16 1032.9 - 0.0 - Partly cloudy 10 - - - -
20/03:00pm 14.7 E 9 16 1032.9 - 0.0 - Mostly cloudy 10 - - - -
20/02:30pm 13.6 ESE 9 15 1033.1 - 0.0 - Cloudy 10 - - - -
20/02:00pm 15.3 SE 9 16 1033.4 - 0.0 - Cloudy 10 - - - -
20/01:30pm 13.6 ESE 10 17 1033.5 - 0.0 - Partly cloudy 10 - - - -
20/01:00pm 13.6 ESE 7 12 1033.5 - 0.0 - Cloudy 10 - - - -
20/12:30pm 13.7 SE 8 15 1033.6 - 0.0 - Cloudy 10 - - - -
20/12:00pm 13.9 ENE 12 17 1033.8 - 0.0 - Partly cloudy 10 - - - -
20/11:30am 14.1 ESE 9 16 1033.8 - 0.0 - Cloudy 10 - - - -
20/11:00am 13.0 ESE 10 17 1033.7 - 0.0 - - 10 - - - -
20/10:30am 12.9 ESE 9 16 1033.8 - 0.0 - Partly cloudy 10 - - - -
20/10:00am 12.4 ESE 9 16 1033.7 - 0.0 - - 10 - - - -
20/09:30am 11.9 ESE 8 14 1033.4 - 0.0 - - 10 - - - -
20/09:00am 11.7 ESE 9 15 1032.8 - 0.0 - - 10 - - - -
20/08:30am 10.8 ESE 7 13 1032.5 - 0.0 - - 10 - - - -
20/08:00am 10.2 SSE 6 13 1032.3 - 0.0 - - 10 - - - -
20/07:30am 9.2 ESE 5 8 1032.1 - 0.0 - - 10 - - - -
20/07:00am 7.9 SE 5 8 1031.9 - 0.0 - - 10 - - - -
20/06:30am 6.9 SE 5 8 1031.2 - 0.0 - - 10 - - - -
20/06:00am 6.6 ESE 6 9 1030.6 - 0.0 - Mostly clear 10 - - - -
20/05:30am 7.8 ESE 6 9 1030.1 - 0.0 - Partly cloudy 10 - - - -
20/05:00am 7.7 ESE 6 9 1029.7 - 0.0 - - 10 - - - -
20/04:30am 8.9 ESE 5 8 1029.4 - 0.0 - Partly cloudy 10 - - - -
20/04:00am 9.3 SE 5 7 1028.9 - 0.0 - Partly cloudy 10 - - - -
20/03:30am 9.8 SSE 7 10 1028.5 - 0.0 - Partly cloudy 10 - - - -
20/03:00am 10.3 E 5 6 1028.1 - 0.0 - Cloudy 10 - - - -
20/02:30am 10.7 E 5 8 1027.6 - 0.0 - Partly cloudy 10 - - - -
20/02:04am 11.1 S 8 12 1027.2 - 0.0 - Partly cloudy 10 - - - -
20/02:00am 11.1 S 6 12 1027.2 - 0.0 - Partly cloudy 10 - - - -
20/01:52am 11.1 SE 2 4 1027.2 - 0.0 - Partly cloudy 10 - - - -
20/01:44am 11.2 ESE 4 5 1027.0 - 0.0 - Partly cloudy 10 - - - -
20/01:33am 11.2 E 5 7 1026.7 - 0.0 - Partly cloudy 10 - - - -
20/01:30am 11.3 E 5 7 1026.8 - 0.0 - Partly cloudy 10 - - - -
20/01:00am 12.6 S 10 15 1026.5 - 0.0 - Partly cloudy 10 - - - -
20/12:30am 12.8 SSW 18 22 1025.7 - 0.0 - Partly cloudy 10 - - - -
20/12:00am 12.6 SW 22 28 1025.4 - 0.0 - Mostly clear 10 - - - -
 
Date/Time
EDT
Temp

°C
Wind Pressure Rain
since 9am
mm
Weather Cloud Vis
km
Sea
Height
m
Swell
Dir
 
Speed
knots
Gust
knots
hPa Trend Height
m
Period
s
Dir
19/11:30pm 12.3 WSW 24 30 1024.7 - 0.0 - - 10 - - - -
19/11:00pm 12.6 WSW 27 33 1024.0 - 0.0 - Partly cloudy 10 - - - -
19/10:30pm 12.6 WSW 27 33 1023.3 - 0.0 - Cloudy 10 - - - -
19/10:00pm 12.5 WSW 28 33 1022.8 - 0.0 - Partly cloudy 10 - - - -
19/09:40pm 14.2 WSW 21 31 1022.0 - 0.0 - Cloudy 10 - - - -
19/09:30pm 14.2 WSW 19 24 1021.7 - 0.0 - Cloudy 10 - - - -
19/09:00pm 14.3 WSW 22 27 1020.9 - 0.0 - Cloudy 10 - - - -
19/08:30pm 14.8 WSW 24 31 1020.8 - 0.0 - Partly cloudy 10 - - - -
19/08:00pm 14.8 WSW 23 28 1019.7 - 0.0 - - 10 - - - -
19/07:30pm 14.7 W 21 26 1019.4 - 0.0 - - 10 - - - -
19/07:00pm 14.9 W 21 26 1019.1 - 0.0 - - 10 - - - -
19/06:30pm 14.9 W 16 20 1018.8 - 0.0 - - 10 - - - -
19/06:00pm 15.0 W 13 17 1018.1 - 0.0 - Mostly cloudy 10 - - - -
19/05:30pm 15.2 W 13 17 1018.0 - 0.0 - - 10 - - - -
19/05:00pm 16.1 WNW 13 16 1017.0 - 0.0 - - 10 - - - -
19/04:30pm 15.4 W 13 16 1017.1 - 0.0 - - 10 - - - -
19/04:00pm 16.0 W 15 18 1017.3 - 0.0 - - 10 - - - -
19/03:31pm 15.6 W 16 19 1017.5 - 0.0 - Partly cloudy 10 - - - -
19/03:30pm 15.6 W 16 20 1017.6 - 0.0 - Partly cloudy 10 - - - -
19/03:00pm 15.8 W 15 18 1017.4 - 0.0 - Mostly cloudy 10 - - - -
19/02:30pm 16.1 W 13 15 1017.5 - 0.0 - Partly cloudy 10 - - - -
19/02:22pm 15.9 W 12 16 1017.5 - 0.0 - Partly cloudy 10 - - - -
19/02:00pm 16.4 W 10 15 1017.5 - 0.0 - Partly cloudy 10 - - - -
19/01:30pm 16.7 WNW 10 14 1017.6 - 0.0 - - 10 - - - -
19/01:00pm 16.2 W 9 12 1018.2 - 0.0 - - 10 - - - -
19/12:30pm 17.2 W 11 15 1018.5 - 0.0 - - 10 - - - -
19/12:00pm 17.1 WNW 11 16 1018.6 - 0.0 - Cloudy 10 - - - -
19/11:30am 16.7 WNW 8 10 1018.8 - 0.0 - - 10 - - - -
19/11:00am 17.0 WNW 10 13 1019.0 - 0.0 - - 10 - - - -
19/10:30am 17.2 WNW 12 15 1019.3 - 0.0 - - 10 - - - -
19/10:00am 19.3 WNW 14 20 1019.3 - 0.0 - - 10 - - - -
19/09:30am 19.8 WNW 15 19 1019.3 - 0.0 - - 10 - - - -
19/09:00am 20.0 NW 14 19 1019.3 - 0.0 - - 10 - - - -

Other Formats:

Comma delimited format used in spreadsheet applications
http://www.bom.gov.au/fwo/IDT60701/IDT60701.94980.axf

JavaScript Object Notation format (JSON) in row-major order
http://www.bom.gov.au/fwo/IDT60701/IDT60701.94980.json